sensor_id;sensor_type;location;lat;lon;timestamp;P1;durP1;ratioP1;P2;durP2;ratioP2
7661;SDS011;30314;48.184;11.510;2022-12-05T00:01:14;20.33;;;9.87;;
7661;SDS011;30314;48.184;11.510;2022-12-05T00:03:45;17.17;;;8.77;;
7661;SDS011;30314;48.184;11.510;2022-12-05T00:06:13;22.50;;;10.87;;
7661;SDS011;30314;48.184;11.510;2022-12-05T00:08:42;22.37;;;10.30;;
7661;SDS011;30314;48.184;11.510;2022-12-05T00:11:10;19.63;;;10.00;;
7661;SDS011;30314;48.184;11.510;2022-12-05T00:13:39;25.70;;;10.27;;
7661;SDS011;30314;48.184;11.510;2022-12-05T00:16:08;21.30;;;10.23;;
7661;SDS011;30314;48.184;11.510;2022-12-05T00:18:37;20.30;;;9.67;;
7661;SDS011;30314;48.184;11.510;2022-12-05T00:21:10;22.33;;;10.80;;
7661;SDS011;30314;48.184;11.510;2022-12-05T00:23:40;21.87;;;10.63;;
7661;SDS011;30314;48.184;11.510;2022-12-05T00:26:08;23.27;;;9.77;;
7661;SDS011;30314;48.184;11.510;2022-12-05T00:28:36;19.30;;;9.63;;
7661;SDS011;30314;48.184;11.510;2022-12-05T00:31:05;24.60;;;11.00;;
7661;SDS011;30314;48.184;11.510;2022-12-05T00:33:34;24.87;;;10.73;;
7661;SDS011;30314;48.184;11.510;2022-12-05T00:36:03;19.90;;;9.23;;
7661;SDS011;30314;48.184;11.510;2022-12-05T00:38:33;24.03;;;10.63;;
7661;SDS011;30314;48.184;11.510;2022-12-05T00:41:02;22.73;;;10.27;;
7661;SDS011;30314;48.184;11.510;2022-12-05T00:43:30;18.73;;;9.27;;
7661;SDS011;30314;48.184;11.510;2022-12-05T00:45:59;21.10;;;10.13;;
7661;SDS011;30314;48.184;11.510;2022-12-05T00:48:28;18.93;;;9.70;;
7661;SDS011;30314;48.184;11.510;2022-12-05T00:50:59;21.50;;;9.73;;
7661;SDS011;30314;48.184;11.510;2022-12-05T00:53:28;25.50;;;10.73;;
7661;SDS011;30314;48.184;11.510;2022-12-05T00:56:00;29.00;;;11.00;;
7661;SDS011;30314;48.184;11.510;2022-12-05T00:58:29;24.03;;;9.47;;
7661;SDS011;30314;48.184;11.510;2022-12-05T01:00:57;24.33;;;11.40;;
7661;SDS011;30314;48.184;11.510;2022-12-05T01:03:32;25.43;;;11.10;;
7661;SDS011;30314;48.184;11.510;2022-12-05T01:06:00;25.03;;;11.40;;
7661;SDS011;30314;48.184;11.510;2022-12-05T01:08:28;17.60;;;9.60;;
7661;SDS011;30314;48.184;11.510;2022-12-05T01:10:57;27.97;;;11.50;;
7661;SDS011;30314;48.184;11.510;2022-12-05T01:13:27;24.27;;;11.20;;
7661;SDS011;30314;48.184;11.510;2022-12-05T01:15:55;23.93;;;11.40;;
7661;SDS011;30314;48.184;11.510;2022-12-05T01:18:24;30.90;;;13.03;;
7661;SDS011;30314;48.184;11.510;2022-12-05T01:20:53;28.00;;;11.80;;
7661;SDS011;30314;48.184;11.510;2022-12-05T01:23:21;19.77;;;10.20;;
7661;SDS011;30314;48.184;11.510;2022-12-05T01:25:50;27.10;;;11.40;;
7661;SDS011;30314;48.184;11.510;2022-12-05T01:28:20;19.43;;;9.47;;
7661;SDS011;30314;48.184;11.510;2022-12-05T01:30:48;25.83;;;11.30;;
7661;SDS011;30314;48.184;11.510;2022-12-05T01:33:17;22.10;;;10.70;;
7661;SDS011;30314;48.184;11.510;2022-12-05T01:35:44;26.37;;;12.37;;
7661;SDS011;30314;48.184;11.510;2022-12-05T01:38:12;18.07;;;10.33;;
7661;SDS011;30314;48.184;11.510;2022-12-05T01:40:40;25.13;;;11.87;;
7661;SDS011;30314;48.184;11.510;2022-12-05T01:43:09;24.03;;;11.10;;
7661;SDS011;30314;48.184;11.510;2022-12-05T01:45:43;25.47;;;12.27;;
7661;SDS011;30314;48.184;11.510;2022-12-05T01:48:13;22.60;;;10.07;;
7661;SDS011;30314;48.184;11.510;2022-12-05T01:50:45;22.60;;;11.50;;
7661;SDS011;30314;48.184;11.510;2022-12-05T01:53:15;21.90;;;10.70;;
7661;SDS011;30314;48.184;11.510;2022-12-05T01:55:43;24.10;;;10.97;;
7661;SDS011;30314;48.184;11.510;2022-12-05T01:58:14;22.57;;;10.23;;
7661;SDS011;30314;48.184;11.510;2022-12-05T02:00:43;22.80;;;10.87;;
7661;SDS011;30314;48.184;11.510;2022-12-05T02:03:13;26.50;;;12.77;;
7661;SDS011;30314;48.184;11.510;2022-12-05T02:05:46;26.60;;;11.30;;
7661;SDS011;30314;48.184;11.510;2022-12-05T02:08:16;24.57;;;10.27;;
7661;SDS011;30314;48.184;11.510;2022-12-05T02:10:46;20.10;;;10.53;;
7661;SDS011;30314;48.184;11.510;2022-12-05T02:13:24;26.30;;;11.20;;
7661;SDS011;30314;48.184;11.510;2022-12-05T02:16:03;18.93;;;9.80;;
7661;SDS011;30314;48.184;11.510;2022-12-05T02:18:43;20.30;;;10.33;;
7661;SDS011;30314;48.184;11.510;2022-12-05T02:21:29;23.13;;;9.80;;
7661;SDS011;30314;48.184;11.510;2022-12-05T02:24:21;26.10;;;10.37;;
7661;SDS011;30314;48.184;11.510;2022-12-05T02:27:17;26.30;;;11.63;;
7661;SDS011;30314;48.184;11.510;2022-12-05T02:30:08;25.07;;;11.13;;
7661;SDS011;30314;48.184;11.510;2022-12-05T02:32:51;24.67;;;10.67;;
7661;SDS011;30314;48.184;11.510;2022-12-05T02:35:33;22.20;;;10.73;;
7661;SDS011;30314;48.184;11.510;2022-12-05T02:38:12;20.03;;;10.23;;
7661;SDS011;30314;48.184;11.510;2022-12-05T02:40:54;23.50;;;11.20;;
7661;SDS011;30314;48.184;11.510;2022-12-05T02:43:31;22.77;;;10.37;;
7661;SDS011;30314;48.184;11.510;2022-12-05T02:46:07;22.67;;;10.53;;
7661;SDS011;30314;48.184;11.510;2022-12-05T02:48:37;23.77;;;10.40;;
7661;SDS011;30314;48.184;11.510;2022-12-05T02:51:08;23.27;;;10.17;;
7661;SDS011;30314;48.184;11.510;2022-12-05T02:53:40;24.60;;;10.87;;
7661;SDS011;30314;48.184;11.510;2022-12-05T02:56:10;23.07;;;10.13;;
7661;SDS011;30314;48.184;11.510;2022-12-05T02:58:39;22.83;;;10.87;;
7661;SDS011;30314;48.184;11.510;2022-12-05T03:01:14;22.00;;;10.50;;
7661;SDS011;30314;48.184;11.510;2022-12-05T03:03:42;27.10;;;12.30;;
7661;SDS011;30314;48.184;11.510;2022-12-05T03:06:10;25.50;;;11.10;;
7661;SDS011;30314;48.184;11.510;2022-12-05T03:08:41;23.47;;;10.90;;
7661;SDS011;30314;48.184;11.510;2022-12-05T03:11:13;22.13;;;10.83;;
7661;SDS011;30314;48.184;11.510;2022-12-05T03:13:42;28.30;;;11.13;;
7661;SDS011;30314;48.184;11.510;2022-12-05T03:16:15;26.63;;;11.13;;
7661;SDS011;30314;48.184;11.510;2022-12-05T03:18:47;26.90;;;11.17;;
7661;SDS011;30314;48.184;11.510;2022-12-05T03:21:23;20.80;;;10.40;;
7661;SDS011;30314;48.184;11.510;2022-12-05T03:23:57;33.53;;;11.87;;
7661;SDS011;30314;48.184;11.510;2022-12-05T03:26:31;22.60;;;11.53;;
7661;SDS011;30314;48.184;11.510;2022-12-05T03:29:08;25.10;;;11.73;;
7661;SDS011;30314;48.184;11.510;2022-12-05T03:31:51;27.20;;;12.17;;
7661;SDS011;30314;48.184;11.510;2022-12-05T03:34:28;26.50;;;11.23;;
7661;SDS011;30314;48.184;11.510;2022-12-05T03:37:05;26.30;;;12.63;;
7661;SDS011;30314;48.184;11.510;2022-12-05T03:39:40;24.77;;;11.27;;
7661;SDS011;30314;48.184;11.510;2022-12-05T03:42:15;26.20;;;11.63;;
7661;SDS011;30314;48.184;11.510;2022-12-05T03:44:46;24.00;;;10.70;;
7661;SDS011;30314;48.184;11.510;2022-12-05T03:47:21;20.10;;;10.03;;
7661;SDS011;30314;48.184;11.510;2022-12-05T03:49:56;15.10;;;9.17;;
7661;SDS011;30314;48.184;11.510;2022-12-05T03:52:29;22.50;;;10.57;;
7661;SDS011;30314;48.184;11.510;2022-12-05T03:55:20;23.87;;;10.50;;
7661;SDS011;30314;48.184;11.510;2022-12-05T03:57:53;22.83;;;11.20;;
7661;SDS011;30314;48.184;11.510;2022-12-05T04:00:24;24.73;;;10.37;;
7661;SDS011;30314;48.184;11.510;2022-12-05T04:02:58;23.63;;;10.23;;
7661;SDS011;30314;48.184;11.510;2022-12-05T04:05:34;20.43;;;9.67;;
7661;SDS011;30314;48.184;11.510;2022-12-05T04:08:07;23.57;;;10.67;;
7661;SDS011;30314;48.184;11.510;2022-12-05T04:10:39;21.03;;;9.53;;
7661;SDS011;30314;48.184;11.510;2022-12-05T04:13:15;19.13;;;10.67;;
7661;SDS011;30314;48.184;11.510;2022-12-05T04:15:48;16.30;;;9.57;;
7661;SDS011;30314;48.184;11.510;2022-12-05T04:18:41;26.17;;;10.70;;
7661;SDS011;30314;48.184;11.510;2022-12-05T04:21:16;17.43;;;9.40;;
7661;SDS011;30314;48.184;11.510;2022-12-05T04:24:04;22.37;;;10.37;;
7661;SDS011;30314;48.184;11.510;2022-12-05T04:26:54;22.03;;;10.17;;
7661;SDS011;30314;48.184;11.510;2022-12-05T04:29:31;24.60;;;10.57;;
7661;SDS011;30314;48.184;11.510;2022-12-05T04:32:05;23.33;;;9.93;;
7661;SDS011;30314;48.184;11.510;2022-12-05T04:34:38;24.80;;;9.90;;
7661;SDS011;30314;48.184;11.510;2022-12-05T04:37:11;23.00;;;10.93;;
7661;SDS011;30314;48.184;11.510;2022-12-05T04:39:45;23.13;;;10.00;;
7661;SDS011;30314;48.184;11.510;2022-12-05T04:42:17;19.80;;;11.13;;
7661;SDS011;30314;48.184;11.510;2022-12-05T04:44:47;27.80;;;11.27;;
7661;SDS011;30314;48.184;11.510;2022-12-05T04:47:19;22.63;;;9.80;;
7661;SDS011;30314;48.184;11.510;2022-12-05T04:49:52;23.50;;;10.37;;
7661;SDS011;30314;48.184;11.510;2022-12-05T04:52:21;23.13;;;9.93;;
7661;SDS011;30314;48.184;11.510;2022-12-05T04:54:50;18.33;;;9.67;;
7661;SDS011;30314;48.184;11.510;2022-12-05T04:57:23;22.93;;;11.80;;
7661;SDS011;30314;48.184;11.510;2022-12-05T04:59:56;25.00;;;10.27;;
7661;SDS011;30314;48.184;11.510;2022-12-05T05:02:25;23.57;;;10.80;;
7661;SDS011;30314;48.184;11.510;2022-12-05T05:05:00;24.90;;;12.27;;
7661;SDS011;30314;48.184;11.510;2022-12-05T05:07:41;23.50;;;11.47;;
7661;SDS011;30314;48.184;11.510;2022-12-05T05:10:10;26.67;;;11.50;;
7661;SDS011;30314;48.184;11.510;2022-12-05T05:12:41;25.90;;;12.70;;
7661;SDS011;30314;48.184;11.510;2022-12-05T05:15:09;32.33;;;13.07;;
7661;SDS011;30314;48.184;11.510;2022-12-05T05:17:37;27.77;;;11.30;;
7661;SDS011;30314;48.184;11.510;2022-12-05T05:20:07;27.93;;;11.90;;
7661;SDS011;30314;48.184;11.510;2022-12-05T05:22:50;27.93;;;11.70;;
7661;SDS011;30314;48.184;11.510;2022-12-05T05:25:19;23.80;;;11.27;;
7661;SDS011;30314;48.184;11.510;2022-12-05T05:27:48;29.77;;;12.50;;
7661;SDS011;30314;48.184;11.510;2022-12-05T05:30:17;24.90;;;11.50;;
7661;SDS011;30314;48.184;11.510;2022-12-05T05:32:46;25.37;;;12.17;;
7661;SDS011;30314;48.184;11.510;2022-12-05T05:35:15;30.37;;;13.10;;
7661;SDS011;30314;48.184;11.510;2022-12-05T05:37:43;33.60;;;13.47;;
7661;SDS011;30314;48.184;11.510;2022-12-05T05:40:11;27.40;;;12.40;;
7661;SDS011;30314;48.184;11.510;2022-12-05T05:42:43;30.67;;;12.87;;
7661;SDS011;30314;48.184;11.510;2022-12-05T05:45:12;23.60;;;11.47;;
7661;SDS011;30314;48.184;11.510;2022-12-05T05:47:41;30.00;;;12.50;;
7661;SDS011;30314;48.184;11.510;2022-12-05T05:50:09;35.40;;;12.60;;
7661;SDS011;30314;48.184;11.510;2022-12-05T05:52:47;31.80;;;12.77;;
7661;SDS011;30314;48.184;11.510;2022-12-05T05:55:15;30.47;;;11.37;;
7661;SDS011;30314;48.184;11.510;2022-12-05T05:57:43;28.40;;;12.60;;
7661;SDS011;30314;48.184;11.510;2022-12-05T06:00:11;26.87;;;12.77;;
7661;SDS011;30314;48.184;11.510;2022-12-05T06:02:40;30.50;;;13.10;;
7661;SDS011;30314;48.184;11.510;2022-12-05T06:05:08;31.47;;;12.40;;
7661;SDS011;30314;48.184;11.510;2022-12-05T06:07:36;27.33;;;12.60;;
7661;SDS011;30314;48.184;11.510;2022-12-05T06:10:06;27.93;;;11.90;;
7661;SDS011;30314;48.184;11.510;2022-12-05T06:12:35;25.77;;;12.17;;
7661;SDS011;30314;48.184;11.510;2022-12-05T06:15:03;30.20;;;11.70;;
7661;SDS011;30314;48.184;11.510;2022-12-05T06:17:31;23.77;;;10.97;;
7661;SDS011;30314;48.184;11.510;2022-12-05T06:19:58;30.67;;;13.47;;
7661;SDS011;30314;48.184;11.510;2022-12-05T06:22:26;27.03;;;11.57;;
7661;SDS011;30314;48.184;11.510;2022-12-05T06:24:56;28.20;;;12.90;;
7661;SDS011;30314;48.184;11.510;2022-12-05T06:27:27;21.37;;;11.60;;
7661;SDS011;30314;48.184;11.510;2022-12-05T06:29:56;23.20;;;11.13;;
7661;SDS011;30314;48.184;11.510;2022-12-05T06:32:24;28.40;;;11.70;;
7661;SDS011;30314;48.184;11.510;2022-12-05T06:34:54;27.67;;;11.90;;
7661;SDS011;30314;48.184;11.510;2022-12-05T06:37:21;25.77;;;11.80;;
7661;SDS011;30314;48.184;11.510;2022-12-05T06:39:49;25.33;;;10.97;;
7661;SDS011;30314;48.184;11.510;2022-12-05T06:42:17;31.40;;;11.37;;
7661;SDS011;30314;48.184;11.510;2022-12-05T06:44:48;28.30;;;11.43;;
7661;SDS011;30314;48.184;11.510;2022-12-05T06:47:16;27.17;;;11.87;;
7661;SDS011;30314;48.184;11.510;2022-12-05T06:49:44;26.80;;;11.80;;
7661;SDS011;30314;48.184;11.510;2022-12-05T06:52:11;24.07;;;11.17;;
7661;SDS011;30314;48.184;11.510;2022-12-05T06:54:39;26.60;;;10.60;;
7661;SDS011;30314;48.184;11.510;2022-12-05T06:57:07;27.97;;;12.77;;
7661;SDS011;30314;48.184;11.510;2022-12-05T06:59:34;30.40;;;12.07;;
7661;SDS011;30314;48.184;11.510;2022-12-05T07:02:03;28.27;;;13.33;;
7661;SDS011;30314;48.184;11.510;2022-12-05T07:04:33;29.73;;;11.87;;
7661;SDS011;30314;48.184;11.510;2022-12-05T07:07:01;23.53;;;12.30;;
7661;SDS011;30314;48.184;11.510;2022-12-05T07:09:29;24.23;;;10.67;;
7661;SDS011;30314;48.184;11.510;2022-12-05T07:12:11;27.60;;;12.33;;
7661;SDS011;30314;48.184;11.510;2022-12-05T07:14:39;29.37;;;11.40;;
7661;SDS011;30314;48.184;11.510;2022-12-05T07:17:17;24.00;;;10.80;;
7661;SDS011;30314;48.184;11.510;2022-12-05T07:19:46;30.33;;;11.50;;
7661;SDS011;30314;48.184;11.510;2022-12-05T07:22:14;24.50;;;12.10;;
7661;SDS011;30314;48.184;11.510;2022-12-05T07:24:42;33.60;;;12.63;;
7661;SDS011;30314;48.184;11.510;2022-12-05T07:27:10;25.33;;;11.43;;
7661;SDS011;30314;48.184;11.510;2022-12-05T07:29:39;23.57;;;11.63;;
7661;SDS011;30314;48.184;11.510;2022-12-05T07:32:06;27.80;;;11.67;;
7661;SDS011;30314;48.184;11.510;2022-12-05T07:34:36;29.30;;;12.13;;
7661;SDS011;30314;48.184;11.510;2022-12-05T07:37:04;24.67;;;11.47;;
7661;SDS011;30314;48.184;11.510;2022-12-05T07:39:32;27.80;;;12.50;;
7661;SDS011;30314;48.184;11.510;2022-12-05T07:42:00;29.17;;;12.63;;
7661;SDS011;30314;48.184;11.510;2022-12-05T07:44:27;26.13;;;11.87;;
7661;SDS011;30314;48.184;11.510;2022-12-05T07:46:56;23.47;;;11.07;;
7661;SDS011;30314;48.184;11.510;2022-12-05T07:49:24;29.47;;;14.10;;
7661;SDS011;30314;48.184;11.510;2022-12-05T07:51:53;27.47;;;13.30;;
7661;SDS011;30314;48.184;11.510;2022-12-05T07:54:21;27.20;;;12.47;;
7661;SDS011;30314;48.184;11.510;2022-12-05T07:56:49;34.73;;;13.53;;
7661;SDS011;30314;48.184;11.510;2022-12-05T07:59:17;29.83;;;12.30;;
7661;SDS011;30314;48.184;11.510;2022-12-05T08:01:45;28.87;;;13.63;;
7661;SDS011;30314;48.184;11.510;2022-12-05T08:04:13;32.70;;;13.07;;
7661;SDS011;30314;48.184;11.510;2022-12-05T08:06:41;23.90;;;11.53;;
7661;SDS011;30314;48.184;11.510;2022-12-05T08:09:10;24.77;;;12.43;;
7661;SDS011;30314;48.184;11.510;2022-12-05T08:11:38;23.20;;;11.80;;
7661;SDS011;30314;48.184;11.510;2022-12-05T08:14:06;22.80;;;11.93;;
7661;SDS011;30314;48.184;11.510;2022-12-05T08:16:34;33.40;;;14.13;;
7661;SDS011;30314;48.184;11.510;2022-12-05T08:19:02;25.57;;;12.23;;
7661;SDS011;30314;48.184;11.510;2022-12-05T08:21:32;32.00;;;12.80;;
7661;SDS011;30314;48.184;11.510;2022-12-05T08:24:02;24.67;;;11.43;;
7661;SDS011;30314;48.184;11.510;2022-12-05T08:26:32;32.33;;;12.60;;
7661;SDS011;30314;48.184;11.510;2022-12-05T08:29:02;25.83;;;11.87;;
7661;SDS011;30314;48.184;11.510;2022-12-05T08:31:33;29.03;;;13.00;;
7661;SDS011;30314;48.184;11.510;2022-12-05T08:34:02;31.17;;;12.70;;
7661;SDS011;30314;48.184;11.510;2022-12-05T08:36:31;30.60;;;14.80;;
7661;SDS011;30314;48.184;11.510;2022-12-05T08:38:59;31.50;;;12.87;;
7661;SDS011;30314;48.184;11.510;2022-12-05T08:41:28;24.33;;;12.20;;
7661;SDS011;30314;48.184;11.510;2022-12-05T08:43:58;21.27;;;12.13;;
7661;SDS011;30314;48.184;11.510;2022-12-05T08:46:28;26.07;;;12.10;;
7661;SDS011;30314;48.184;11.510;2022-12-05T08:48:56;20.90;;;10.97;;
7661;SDS011;30314;48.184;11.510;2022-12-05T08:51:24;29.67;;;11.47;;
7661;SDS011;30314;48.184;11.510;2022-12-05T08:53:51;22.13;;;10.73;;
7661;SDS011;30314;48.184;11.510;2022-12-05T08:56:21;25.43;;;12.00;;
7661;SDS011;30314;48.184;11.510;2022-12-05T08:58:52;23.10;;;11.10;;
7661;SDS011;30314;48.184;11.510;2022-12-05T09:01:29;25.10;;;11.70;;
7661;SDS011;30314;48.184;11.510;2022-12-05T09:03:58;22.10;;;12.20;;
7661;SDS011;30314;48.184;11.510;2022-12-05T09:06:27;26.73;;;11.30;;
7661;SDS011;30314;48.184;11.510;2022-12-05T09:08:55;26.50;;;12.43;;
7661;SDS011;30314;48.184;11.510;2022-12-05T09:11:25;24.60;;;11.00;;
7661;SDS011;30314;48.184;11.510;2022-12-05T09:13:55;26.83;;;11.80;;
7661;SDS011;30314;48.184;11.510;2022-12-05T09:16:25;20.60;;;9.90;;
7661;SDS011;30314;48.184;11.510;2022-12-05T09:19:08;21.43;;;10.53;;
7661;SDS011;30314;48.184;11.510;2022-12-05T09:21:38;21.63;;;10.93;;
7661;SDS011;30314;48.184;11.510;2022-12-05T09:24:06;23.57;;;11.03;;
7661;SDS011;30314;48.184;11.510;2022-12-05T09:26:37;26.37;;;11.07;;
7661;SDS011;30314;48.184;11.510;2022-12-05T09:29:06;23.20;;;11.47;;
7661;SDS011;30314;48.184;11.510;2022-12-05T09:31:42;21.77;;;11.27;;
7661;SDS011;30314;48.184;11.510;2022-12-05T09:34:12;21.50;;;10.70;;
7661;SDS011;30314;48.184;11.510;2022-12-05T09:36:40;18.20;;;10.53;;
7661;SDS011;30314;48.184;11.510;2022-12-05T09:39:09;21.30;;;10.07;;
7661;SDS011;30314;48.184;11.510;2022-12-05T09:44:40;21.60;;;11.20;;
7661;SDS011;30314;48.184;11.510;2022-12-05T09:47:12;22.40;;;10.97;;
7661;SDS011;30314;48.184;11.510;2022-12-05T09:49:49;23.73;;;11.63;;
7661;SDS011;30314;48.184;11.510;2022-12-05T09:52:22;22.30;;;11.17;;
7661;SDS011;30314;48.184;11.510;2022-12-05T09:54:54;21.20;;;10.50;;
7661;SDS011;30314;48.184;11.510;2022-12-05T09:57:25;19.60;;;12.00;;
7661;SDS011;30314;48.184;11.510;2022-12-05T10:00:00;23.70;;;11.83;;
7661;SDS011;30314;48.184;11.510;2022-12-05T10:02:33;18.87;;;10.10;;
7661;SDS011;30314;48.184;11.510;2022-12-05T10:05:10;20.90;;;10.50;;
7661;SDS011;30314;48.184;11.510;2022-12-05T10:07:46;20.13;;;11.00;;
7661;SDS011;30314;48.184;11.510;2022-12-05T10:10:23;21.03;;;10.27;;
7661;SDS011;30314;48.184;11.510;2022-12-05T10:12:59;26.87;;;12.33;;
7661;SDS011;30314;48.184;11.510;2022-12-05T10:15:36;18.33;;;10.17;;
7661;SDS011;30314;48.184;11.510;2022-12-05T10:18:13;23.57;;;10.87;;
7661;SDS011;30314;48.184;11.510;2022-12-05T10:20:55;22.53;;;11.43;;
7661;SDS011;30314;48.184;11.510;2022-12-05T10:23:28;23.37;;;12.20;;
7661;SDS011;30314;48.184;11.510;2022-12-05T10:26:18;23.60;;;11.40;;
7661;SDS011;30314;48.184;11.510;2022-12-05T10:28:49;20.43;;;10.70;;
7661;SDS011;30314;48.184;11.510;2022-12-05T10:31:23;20.53;;;10.30;;
7661;SDS011;30314;48.184;11.510;2022-12-05T10:33:58;20.97;;;11.77;;
7661;SDS011;30314;48.184;11.510;2022-12-05T10:36:33;22.63;;;11.83;;
7661;SDS011;30314;48.184;11.510;2022-12-05T10:39:01;17.27;;;9.70;;
7661;SDS011;30314;48.184;11.510;2022-12-05T10:41:36;26.00;;;11.93;;
7661;SDS011;30314;48.184;11.510;2022-12-05T10:44:04;20.93;;;10.20;;
7661;SDS011;30314;48.184;11.510;2022-12-05T10:46:32;22.30;;;11.00;;
7661;SDS011;30314;48.184;11.510;2022-12-05T10:49:00;20.57;;;11.27;;
7661;SDS011;30314;48.184;11.510;2022-12-05T10:51:28;23.60;;;11.73;;
7661;SDS011;30314;48.184;11.510;2022-12-05T10:54:07;19.27;;;11.40;;
7661;SDS011;30314;48.184;11.510;2022-12-05T10:56:43;17.00;;;8.93;;
7661;SDS011;30314;48.184;11.510;2022-12-05T10:59:13;17.43;;;10.03;;
7661;SDS011;30314;48.184;11.510;2022-12-05T11:01:44;22.10;;;11.50;;
7661;SDS011;30314;48.184;11.510;2022-12-05T11:04:19;23.20;;;11.63;;
7661;SDS011;30314;48.184;11.510;2022-12-05T11:06:50;18.83;;;10.57;;
7661;SDS011;30314;48.184;11.510;2022-12-05T11:09:22;18.57;;;10.23;;
7661;SDS011;30314;48.184;11.510;2022-12-05T11:15:01;18.93;;;9.97;;
7661;SDS011;30314;48.184;11.510;2022-12-05T11:17:32;19.13;;;10.50;;
7661;SDS011;30314;48.184;11.510;2022-12-05T11:20:02;16.57;;;9.07;;
7661;SDS011;30314;48.184;11.510;2022-12-05T11:22:51;19.43;;;10.10;;
7661;SDS011;30314;48.184;11.510;2022-12-05T11:25:24;19.50;;;11.37;;
7661;SDS011;30314;48.184;11.510;2022-12-05T11:27:56;18.70;;;10.63;;
7661;SDS011;30314;48.184;11.510;2022-12-05T11:30:27;20.97;;;10.67;;
7661;SDS011;30314;48.184;11.510;2022-12-05T11:33:09;18.90;;;10.77;;
7661;SDS011;30314;48.184;11.510;2022-12-05T11:35:37;21.37;;;10.77;;
7661;SDS011;30314;48.184;11.510;2022-12-05T11:38:06;19.20;;;10.67;;
7661;SDS011;30314;48.184;11.510;2022-12-05T11:40:40;19.57;;;11.23;;
7661;SDS011;30314;48.184;11.510;2022-12-05T11:43:20;19.43;;;11.57;;
7661;SDS011;30314;48.184;11.510;2022-12-05T11:46:05;18.20;;;10.03;;
7661;SDS011;30314;48.184;11.510;2022-12-05T11:48:45;15.93;;;9.43;;
7661;SDS011;30314;48.184;11.510;2022-12-05T11:51:30;22.13;;;10.10;;
7661;SDS011;30314;48.184;11.510;2022-12-05T11:57:23;19.83;;;10.47;;
7661;SDS011;30314;48.184;11.510;2022-12-05T12:00:11;23.70;;;11.03;;
7661;SDS011;30314;48.184;11.510;2022-12-05T12:02:57;16.40;;;8.80;;
7661;SDS011;30314;48.184;11.510;2022-12-05T12:05:49;17.97;;;8.67;;
7661;SDS011;30314;48.184;11.510;2022-12-05T12:08:28;16.27;;;9.00;;
7661;SDS011;30314;48.184;11.510;2022-12-05T12:11:00;15.80;;;9.77;;
7661;SDS011;30314;48.184;11.510;2022-12-05T12:13:49;16.70;;;9.37;;
7661;SDS011;30314;48.184;11.510;2022-12-05T12:16:30;17.40;;;9.20;;
7661;SDS011;30314;48.184;11.510;2022-12-05T12:22:10;16.03;;;8.50;;
7661;SDS011;30314;48.184;11.510;2022-12-05T12:24:53;16.70;;;8.37;;
7661;SDS011;30314;48.184;11.510;2022-12-05T12:27:35;18.47;;;8.60;;
7661;SDS011;30314;48.184;11.510;2022-12-05T12:30:19;19.10;;;10.50;;
7661;SDS011;30314;48.184;11.510;2022-12-05T12:32:52;13.90;;;7.90;;
7661;SDS011;30314;48.184;11.510;2022-12-05T12:35:28;17.90;;;7.80;;
7661;SDS011;30314;48.184;11.510;2022-12-05T12:38:11;15.00;;;7.27;;
7661;SDS011;30314;48.184;11.510;2022-12-05T12:40:49;15.60;;;9.13;;
7661;SDS011;30314;48.184;11.510;2022-12-05T12:43:22;14.73;;;7.27;;
7661;SDS011;30314;48.184;11.510;2022-12-05T12:46:26;10.13;;;6.57;;
7661;SDS011;30314;48.184;11.510;2022-12-05T12:52:03;11.63;;;7.13;;
7661;SDS011;30314;48.184;11.510;2022-12-05T12:54:40;10.70;;;6.73;;
7661;SDS011;30314;48.184;11.510;2022-12-05T12:57:31;14.67;;;8.27;;
7661;SDS011;30314;48.184;11.510;2022-12-05T13:00:11;13.90;;;7.57;;
7661;SDS011;30314;48.184;11.510;2022-12-05T13:02:50;11.20;;;6.67;;
7661;SDS011;30314;48.184;11.510;2022-12-05T13:05:25;10.57;;;6.50;;
7661;SDS011;30314;48.184;11.510;2022-12-05T13:08:00;11.97;;;6.07;;
7661;SDS011;30314;48.184;11.510;2022-12-05T13:10:34;10.70;;;5.60;;
7661;SDS011;30314;48.184;11.510;2022-12-05T13:13:06;8.30;;;5.37;;
7661;SDS011;30314;48.184;11.510;2022-12-05T13:15:38;12.60;;;7.20;;
7661;SDS011;30314;48.184;11.510;2022-12-05T13:18:13;10.00;;;5.60;;
7661;SDS011;30314;48.184;11.510;2022-12-05T13:20:42;9.10;;;4.73;;
7661;SDS011;30314;48.184;11.510;2022-12-05T13:23:13;8.40;;;4.87;;
7661;SDS011;30314;48.184;11.510;2022-12-05T13:25:44;8.37;;;4.73;;
7661;SDS011;30314;48.184;11.510;2022-12-05T13:28:21;9.43;;;5.37;;
7661;SDS011;30314;48.184;11.510;2022-12-05T13:30:52;8.30;;;4.70;;
7661;SDS011;30314;48.184;11.510;2022-12-05T13:33:30;7.20;;;4.50;;
7661;SDS011;30314;48.184;11.510;2022-12-05T13:36:07;7.50;;;4.23;;
7661;SDS011;30314;48.184;11.510;2022-12-05T13:38:55;8.07;;;4.40;;
7661;SDS011;30314;48.184;11.510;2022-12-05T13:41:42;5.40;;;3.60;;
7661;SDS011;30314;48.184;11.510;2022-12-05T13:44:31;5.30;;;4.27;;
7661;SDS011;30314;48.184;11.510;2022-12-05T13:47:03;8.30;;;5.20;;
7661;SDS011;30314;48.184;11.510;2022-12-05T13:49:40;7.57;;;5.27;;
7661;SDS011;30314;48.184;11.510;2022-12-05T13:52:12;7.90;;;3.87;;
7661;SDS011;30314;48.184;11.510;2022-12-05T13:54:42;9.43;;;5.57;;
7661;SDS011;30314;48.184;11.510;2022-12-05T14:02:56;7.87;;;4.60;;
7661;SDS011;30314;48.184;11.510;2022-12-05T14:05:36;8.70;;;4.37;;
7661;SDS011;30314;48.184;11.510;2022-12-05T14:11:27;6.90;;;4.00;;
7661;SDS011;30314;48.184;11.510;2022-12-05T14:13:55;10.33;;;4.80;;
7661;SDS011;30314;48.184;11.510;2022-12-05T14:19:12;6.73;;;3.50;;
7661;SDS011;30314;48.184;11.510;2022-12-05T14:22:03;7.27;;;4.10;;
7661;SDS011;30314;48.184;11.510;2022-12-05T14:24:50;6.40;;;3.33;;
7661;SDS011;30314;48.184;11.510;2022-12-05T14:27:26;6.63;;;4.37;;
7661;SDS011;30314;48.184;11.510;2022-12-05T14:30:11;7.73;;;3.50;;
7661;SDS011;30314;48.184;11.510;2022-12-05T14:32:47;5.10;;;3.57;;
7661;SDS011;30314;48.184;11.510;2022-12-05T14:35:26;7.87;;;4.80;;
7661;SDS011;30314;48.184;11.510;2022-12-05T14:37:58;6.87;;;3.80;;
7661;SDS011;30314;48.184;11.510;2022-12-05T14:40:29;6.37;;;3.80;;
7661;SDS011;30314;48.184;11.510;2022-12-05T14:42:59;5.50;;;3.33;;
7661;SDS011;30314;48.184;11.510;2022-12-05T14:45:31;6.60;;;3.87;;
7661;SDS011;30314;48.184;11.510;2022-12-05T14:48:02;8.10;;;4.40;;
7661;SDS011;30314;48.184;11.510;2022-12-05T14:50:36;6.87;;;3.90;;
7661;SDS011;30314;48.184;11.510;2022-12-05T14:53:14;8.30;;;3.50;;
7661;SDS011;30314;48.184;11.510;2022-12-05T14:55:49;7.10;;;4.50;;
7661;SDS011;30314;48.184;11.510;2022-12-05T14:58:21;5.93;;;3.40;;
7661;SDS011;30314;48.184;11.510;2022-12-05T15:00:58;5.27;;;4.20;;
7661;SDS011;30314;48.184;11.510;2022-12-05T15:03:29;7.37;;;4.07;;
7661;SDS011;30314;48.184;11.510;2022-12-05T15:05:59;9.50;;;4.17;;
7661;SDS011;30314;48.184;11.510;2022-12-05T15:08:32;10.00;;;4.57;;
7661;SDS011;30314;48.184;11.510;2022-12-05T15:11:09;7.53;;;4.47;;
7661;SDS011;30314;48.184;11.510;2022-12-05T15:13:54;6.83;;;4.13;;
7661;SDS011;30314;48.184;11.510;2022-12-05T15:16:25;5.87;;;3.57;;
7661;SDS011;30314;48.184;11.510;2022-12-05T15:18:56;8.73;;;4.90;;
7661;SDS011;30314;48.184;11.510;2022-12-05T15:21:29;6.00;;;3.60;;
7661;SDS011;30314;48.184;11.510;2022-12-05T15:24:03;5.50;;;3.60;;
7661;SDS011;30314;48.184;11.510;2022-12-05T15:26:38;6.00;;;3.40;;